RU-0164 weather

Tikhoretsk Air Base
Tikhoretsk, Krasnodar Krai, Russia

Public forecast

Using degrees Celsius for public forecast. Weather courtesy of forecast.io.

METAR (pilot weather report)

Closest report is Krasnodar Pashkovsky International Airport, 64.2 nm (118.9 km) SW. Retrieved 2019/08/19 20:30 UTC (0 seconds ago):

URKK 192030Z 30002MPS 7000 NSC 22/21 Q1016 R23L/CLRD70 TEMPO 0500 FG SCT004 RMK QFE758

TAF (pilot weather forecast)

Closest forecast is Krasnodar Pashkovsky International Airport, 64.2 nm (118.9 km) SW. Retrieved 2019/08/19 21:21 UTC (0 seconds ago):

TAF URKK 191955Z 1921/2021 34003G08MPS 5000 -SHRA BR SCT011 SCT030CB TEMPO 1921/2006 04003G08MPS 0500 FG BKN003 BKN020CB PROB40 2000/2006 -TSRA TEMPO 2006/2018 04007G14MPS